sensor_id;sensor_type;location;lat;lon;timestamp;P1;durP1;ratioP1;P2;durP2;ratioP2
39482;SDS011;25682;48.438;1.482;2022-12-29T09:13:17;10.63;;;2.25;;
39482;SDS011;25682;48.438;1.482;2022-12-29T09:15:42;23.08;;;3.78;;
39482;SDS011;25682;48.438;1.482;2022-12-29T09:18:08;16.20;;;3.67;;
39482;SDS011;25682;48.438;1.482;2022-12-29T09:20:35;9.50;;;2.95;;
39482;SDS011;25682;48.438;1.482;2022-12-29T09:23:02;15.10;;;4.05;;
39482;SDS011;25682;48.438;1.482;2022-12-29T09:25:28;12.65;;;3.58;;
39482;SDS011;25682;48.438;1.482;2022-12-29T09:27:54;9.35;;;3.28;;
39482;SDS011;25682;48.438;1.482;2022-12-29T09:30:20;15.50;;;3.83;;
39482;SDS011;25682;48.438;1.482;2022-12-29T09:32:47;9.57;;;2.67;;
39482;SDS011;25682;48.438;1.482;2022-12-29T09:35:14;8.95;;;2.60;;
39482;SDS011;25682;48.438;1.482;2022-12-29T09:37:41;11.52;;;2.83;;
39482;SDS011;25682;48.438;1.482;2022-12-29T09:40:15;11.20;;;3.63;;
39482;SDS011;25682;48.438;1.482;2022-12-29T09:43:04;14.43;;;3.58;;
39482;SDS011;25682;48.438;1.482;2022-12-29T09:46:38;7.47;;;2.97;;
39482;SDS011;25682;48.438;1.482;2022-12-29T09:48:55;10.63;;;3.28;;
39482;SDS011;25682;48.438;1.482;2022-12-29T09:51:30;9.43;;;3.67;;
39482;SDS011;25682;48.438;1.482;2022-12-29T09:53:58;17.90;;;3.72;;
39482;SDS011;25682;48.438;1.482;2022-12-29T09:56:28;12.02;;;3.85;;
39482;SDS011;25682;48.438;1.482;2022-12-29T09:58:59;8.20;;;2.45;;
39482;SDS011;25682;48.438;1.482;2022-12-29T10:01:32;9.02;;;2.85;;
39482;SDS011;25682;48.438;1.482;2022-12-29T10:04:05;7.90;;;3.28;;
39482;SDS011;25682;48.438;1.482;2022-12-29T10:18:09;12.95;;;2.95;;
39482;SDS011;25682;48.438;1.482;2022-12-29T10:20:54;15.73;;;3.60;;
39482;SDS011;25682;48.438;1.482;2022-12-29T10:23:40;10.05;;;3.33;;
39482;SDS011;25682;48.438;1.482;2022-12-29T10:26:11;8.27;;;2.67;;
39482;SDS011;25682;48.438;1.482;2022-12-29T10:28:50;10.43;;;3.25;;
39482;SDS011;25682;48.438;1.482;2022-12-29T10:31:23;10.55;;;3.20;;
39482;SDS011;25682;48.438;1.482;2022-12-29T10:33:56;8.50;;;3.25;;
39482;SDS011;25682;48.438;1.482;2022-12-29T10:36:46;11.02;;;3.13;;
39482;SDS011;25682;48.438;1.482;2022-12-29T10:39:14;16.65;;;2.65;;
39482;SDS011;25682;48.438;1.482;2022-12-29T10:41:59;9.98;;;4.32;;
39482;SDS011;25682;48.438;1.482;2022-12-29T10:44:42;13.35;;;3.35;;
39482;SDS011;25682;48.438;1.482;2022-12-29T10:47:15;11.07;;;3.83;;
39482;SDS011;25682;48.438;1.482;2022-12-29T10:49:44;7.68;;;3.65;;
39482;SDS011;25682;48.438;1.482;2022-12-29T10:52:12;11.63;;;3.60;;
39482;SDS011;25682;48.438;1.482;2022-12-29T10:57:28;13.27;;;3.40;;
39482;SDS011;25682;48.438;1.482;2022-12-29T11:00:12;11.93;;;3.40;;
39482;SDS011;25682;48.438;1.482;2022-12-29T11:07:57;10.02;;;3.40;;
39482;SDS011;25682;48.438;1.482;2022-12-29T11:13:02;12.25;;;3.65;;
39482;SDS011;25682;48.438;1.482;2022-12-29T11:15:43;10.77;;;3.33;;
39482;SDS011;25682;48.438;1.482;2022-12-29T11:21:02;9.00;;;2.33;;
39482;SDS011;25682;48.438;1.482;2022-12-29T11:23:31;10.95;;;3.50;;
39482;SDS011;25682;48.438;1.482;2022-12-29T11:28:42;7.63;;;2.47;;
39482;SDS011;25682;48.438;1.482;2022-12-29T11:31:10;10.82;;;2.95;;
39482;SDS011;25682;48.438;1.482;2022-12-29T11:33:40;12.45;;;2.90;;
39482;SDS011;25682;48.438;1.482;2022-12-29T11:38:34;8.80;;;2.28;;
39482;SDS011;25682;48.438;1.482;2022-12-29T11:41:02;9.43;;;2.85;;
39482;SDS011;25682;48.438;1.482;2022-12-29T11:46:01;6.40;;;2.45;;
39482;SDS011;25682;48.438;1.482;2022-12-29T11:48:39;6.30;;;2.13;;
39482;SDS011;25682;48.438;1.482;2022-12-29T11:51:06;8.32;;;2.78;;
39482;SDS011;25682;48.438;1.482;2022-12-29T11:56:10;11.82;;;2.63;;
39482;SDS011;25682;48.438;1.482;2022-12-29T11:58:41;10.25;;;3.05;;
39482;SDS011;25682;48.438;1.482;2022-12-29T12:01:17;10.60;;;2.83;;
39482;SDS011;25682;48.438;1.482;2022-12-29T12:04:26;9.30;;;3.20;;
39482;SDS011;25682;48.438;1.482;2022-12-29T12:06:48;18.80;;;3.60;;
39482;SDS011;25682;48.438;1.482;2022-12-29T12:09:32;12.30;;;3.30;;
39482;SDS011;25682;48.438;1.482;2022-12-29T12:12:01;15.65;;;4.75;;
39482;SDS011;25682;48.438;1.482;2022-12-29T12:17:11;8.40;;;3.03;;
39482;SDS011;25682;48.438;1.482;2022-12-29T12:20:02;14.82;;;4.22;;
39482;SDS011;25682;48.438;1.482;2022-12-29T12:23:02;10.32;;;3.80;;
39482;SDS011;25682;48.438;1.482;2022-12-29T12:25:51;8.40;;;3.45;;
39482;SDS011;25682;48.438;1.482;2022-12-29T12:31:27;11.77;;;3.80;;
39482;SDS011;25682;48.438;1.482;2022-12-29T12:34:02;15.23;;;3.47;;
39482;SDS011;25682;48.438;1.482;2022-12-29T12:41:57;16.05;;;3.28;;
39482;SDS011;25682;48.438;1.482;2022-12-29T12:44:39;15.15;;;3.88;;
39482;SDS011;25682;48.438;1.482;2022-12-29T12:55:11;9.20;;;2.92;;
39482;SDS011;25682;48.438;1.482;2022-12-29T13:00:22;8.98;;;3.25;;
39482;SDS011;25682;48.438;1.482;2022-12-29T13:22:32;12.88;;;3.15;;
39482;SDS011;25682;48.438;1.482;2022-12-29T13:25:14;9.30;;;2.88;;
39482;SDS011;25682;48.438;1.482;2022-12-29T13:28:01;10.95;;;3.20;;
39482;SDS011;25682;48.438;1.482;2022-12-29T13:30:29;15.40;;;2.93;;
39482;SDS011;25682;48.438;1.482;2022-12-29T13:32:59;11.85;;;2.60;;
39482;SDS011;25682;48.438;1.482;2022-12-29T13:35:55;10.07;;;3.45;;
39482;SDS011;25682;48.438;1.482;2022-12-29T13:41:08;7.82;;;2.97;;
39482;SDS011;25682;48.438;1.482;2022-12-29T13:43:38;8.73;;;2.95;;
39482;SDS011;25682;48.438;1.482;2022-12-29T13:46:12;7.70;;;2.53;;
39482;SDS011;25682;48.438;1.482;2022-12-29T13:48:45;10.55;;;3.00;;
39482;SDS011;25682;48.438;1.482;2022-12-29T13:51:15;7.85;;;2.70;;
39482;SDS011;25682;48.438;1.482;2022-12-29T13:56:31;11.35;;;3.47;;
39482;SDS011;25682;48.438;1.482;2022-12-29T14:02:17;9.57;;;2.65;;
39482;SDS011;25682;48.438;1.482;2022-12-29T14:05:05;10.30;;;2.72;;
39482;SDS011;25682;48.438;1.482;2022-12-29T14:07:58;9.45;;;2.47;;
39482;SDS011;25682;48.438;1.482;2022-12-29T14:10:30;10.10;;;3.33;;
39482;SDS011;25682;48.438;1.482;2022-12-29T14:13:13;9.55;;;3.20;;
39482;SDS011;25682;48.438;1.482;2022-12-29T14:15:42;10.05;;;3.20;;
39482;SDS011;25682;48.438;1.482;2022-12-29T14:18:11;9.52;;;3.65;;
39482;SDS011;25682;48.438;1.482;2022-12-29T14:20:37;7.97;;;3.00;;
39482;SDS011;25682;48.438;1.482;2022-12-29T14:28:25;6.95;;;3.08;;
39482;SDS011;25682;48.438;1.482;2022-12-29T14:30:59;9.30;;;2.80;;
39482;SDS011;25682;48.438;1.482;2022-12-29T14:33:27;6.60;;;2.17;;
39482;SDS011;25682;48.438;1.482;2022-12-29T14:35:55;8.57;;;2.65;;
39482;SDS011;25682;48.438;1.482;2022-12-29T14:38:22;6.78;;;2.22;;
39482;SDS011;25682;48.438;1.482;2022-12-29T14:40:50;10.10;;;3.13;;
39482;SDS011;25682;48.438;1.482;2022-12-29T14:43:34;8.23;;;2.35;;
39482;SDS011;25682;48.438;1.482;2022-12-29T14:46:00;8.15;;;2.47;;
39482;SDS011;25682;48.438;1.482;2022-12-29T14:48:32;5.75;;;2.72;;
39482;SDS011;25682;48.438;1.482;2022-12-29T14:51:01;12.18;;;2.58;;
39482;SDS011;25682;48.438;1.482;2022-12-29T14:53:48;8.30;;;2.50;;
39482;SDS011;25682;48.438;1.482;2022-12-29T14:56:16;14.75;;;3.42;;
39482;SDS011;25682;48.438;1.482;2022-12-29T14:58:52;7.85;;;2.70;;
39482;SDS011;25682;48.438;1.482;2022-12-29T15:03:57;7.13;;;2.63;;
39482;SDS011;25682;48.438;1.482;2022-12-29T15:06:29;7.43;;;2.42;;
39482;SDS011;25682;48.438;1.482;2022-12-29T15:09:03;11.30;;;2.42;;
39482;SDS011;25682;48.438;1.482;2022-12-29T15:12:00;6.20;;;2.20;;
39482;SDS011;25682;48.438;1.482;2022-12-29T15:14:48;6.65;;;2.25;;
39482;SDS011;25682;48.438;1.482;2022-12-29T15:17:29;8.20;;;2.27;;
39482;SDS011;25682;48.438;1.482;2022-12-29T15:19:58;8.30;;;1.95;;
39482;SDS011;25682;48.438;1.482;2022-12-29T15:22:26;5.00;;;2.53;;
39482;SDS011;25682;48.438;1.482;2022-12-29T15:24:53;10.95;;;3.35;;
39482;SDS011;25682;48.438;1.482;2022-12-29T15:27:21;9.02;;;2.42;;
39482;SDS011;25682;48.438;1.482;2022-12-29T15:29:55;5.25;;;2.03;;
39482;SDS011;25682;48.438;1.482;2022-12-29T15:32:27;7.22;;;2.35;;
39482;SDS011;25682;48.438;1.482;2022-12-29T15:34:55;9.07;;;2.88;;
39482;SDS011;25682;48.438;1.482;2022-12-29T15:37:27;8.82;;;2.45;;
39482;SDS011;25682;48.438;1.482;2022-12-29T15:39:57;9.73;;;2.13;;
39482;SDS011;25682;48.438;1.482;2022-12-29T15:45:29;14.02;;;2.08;;
39482;SDS011;25682;48.438;1.482;2022-12-29T15:47:58;18.27;;;2.20;;
39482;SDS011;25682;48.438;1.482;2022-12-29T15:50:26;6.38;;;2.22;;
39482;SDS011;25682;48.438;1.482;2022-12-29T15:52:52;14.43;;;2.67;;
39482;SDS011;25682;48.438;1.482;2022-12-29T15:55:20;7.03;;;2.10;;
39482;SDS011;25682;48.438;1.482;2022-12-29T15:57:46;9.25;;;2.50;;
39482;SDS011;25682;48.438;1.482;2022-12-29T16:00:22;10.10;;;2.67;;
39482;SDS011;25682;48.438;1.482;2022-12-29T16:02:50;13.52;;;2.60;;
39482;SDS011;25682;48.438;1.482;2022-12-29T16:05:18;8.50;;;2.53;;
39482;SDS011;25682;48.438;1.482;2022-12-29T16:10:54;9.70;;;2.72;;
39482;SDS011;25682;48.438;1.482;2022-12-29T16:13:31;10.00;;;2.50;;
39482;SDS011;25682;48.438;1.482;2022-12-29T16:16:02;13.30;;;2.80;;
39482;SDS011;25682;48.438;1.482;2022-12-29T16:18:33;9.63;;;3.13;;
39482;SDS011;25682;48.438;1.482;2022-12-29T16:21:02;17.30;;;2.38;;
39482;SDS011;25682;48.438;1.482;2022-12-29T16:23:30;7.90;;;2.00;;
39482;SDS011;25682;48.438;1.482;2022-12-29T16:25:57;9.77;;;2.30;;
39482;SDS011;25682;48.438;1.482;2022-12-29T16:28:23;10.27;;;2.47;;
39482;SDS011;25682;48.438;1.482;2022-12-29T16:31:04;8.80;;;3.05;;
39482;SDS011;25682;48.438;1.482;2022-12-29T16:37:02;8.32;;;2.90;;
39482;SDS011;25682;48.438;1.482;2022-12-29T16:39:35;8.50;;;2.13;;
39482;SDS011;25682;48.438;1.482;2022-12-29T16:47:48;9.07;;;2.72;;
39482;SDS011;25682;48.438;1.482;2022-12-29T16:51:09;6.70;;;2.28;;
39482;SDS011;25682;48.438;1.482;2022-12-29T16:53:42;5.20;;;2.38;;
39482;SDS011;25682;48.438;1.482;2022-12-29T16:56:18;7.57;;;2.55;;
39482;SDS011;25682;48.438;1.482;2022-12-29T16:58:51;8.55;;;2.65;;
39482;SDS011;25682;48.438;1.482;2022-12-29T17:01:24;6.25;;;2.20;;
39482;SDS011;25682;48.438;1.482;2022-12-29T17:03:51;6.40;;;2.28;;
39482;SDS011;25682;48.438;1.482;2022-12-29T17:06:21;5.85;;;2.70;;
39482;SDS011;25682;48.438;1.482;2022-12-29T17:08:47;6.82;;;2.65;;
39482;SDS011;25682;48.438;1.482;2022-12-29T17:11:24;6.55;;;2.20;;
39482;SDS011;25682;48.438;1.482;2022-12-29T17:14:18;6.28;;;2.45;;
39482;SDS011;25682;48.438;1.482;2022-12-29T17:16:56;6.85;;;2.72;;
39482;SDS011;25682;48.438;1.482;2022-12-29T17:19:28;10.73;;;2.58;;
39482;SDS011;25682;48.438;1.482;2022-12-29T17:21:55;5.78;;;2.10;;
39482;SDS011;25682;48.438;1.482;2022-12-29T17:24:21;6.68;;;2.17;;
39482;SDS011;25682;48.438;1.482;2022-12-29T17:26:48;7.22;;;2.25;;
39482;SDS011;25682;48.438;1.482;2022-12-29T17:29:21;8.02;;;2.60;;
39482;SDS011;25682;48.438;1.482;2022-12-29T17:32:01;8.83;;;2.93;;
39482;SDS011;25682;48.438;1.482;2022-12-29T17:34:28;6.15;;;2.60;;
39482;SDS011;25682;48.438;1.482;2022-12-29T17:36:54;6.68;;;3.15;;
39482;SDS011;25682;48.438;1.482;2022-12-29T17:39:19;6.30;;;2.28;;
39482;SDS011;25682;48.438;1.482;2022-12-29T17:41:45;5.97;;;2.50;;
39482;SDS011;25682;48.438;1.482;2022-12-29T17:44:18;5.13;;;2.15;;
39482;SDS011;25682;48.438;1.482;2022-12-29T17:46:45;5.38;;;2.25;;
39482;SDS011;25682;48.438;1.482;2022-12-29T17:49:12;5.93;;;2.40;;
39482;SDS011;25682;48.438;1.482;2022-12-29T17:51:40;5.85;;;2.42;;
39482;SDS011;25682;48.438;1.482;2022-12-29T17:54:21;5.63;;;2.53;;
39482;SDS011;25682;48.438;1.482;2022-12-29T17:56:48;5.32;;;2.28;;
39482;SDS011;25682;48.438;1.482;2022-12-29T17:59:15;7.68;;;3.05;;
39482;SDS011;25682;48.438;1.482;2022-12-29T18:01:41;8.85;;;2.50;;
39482;SDS011;25682;48.438;1.482;2022-12-29T18:04:14;5.18;;;2.55;;
39482;SDS011;25682;48.438;1.482;2022-12-29T18:06:42;7.28;;;2.53;;
39482;SDS011;25682;48.438;1.482;2022-12-29T18:09:08;9.77;;;3.33;;
39482;SDS011;25682;48.438;1.482;2022-12-29T18:11:35;6.88;;;2.95;;
39482;SDS011;25682;48.438;1.482;2022-12-29T18:14:05;7.97;;;2.30;;
39482;SDS011;25682;48.438;1.482;2022-12-29T18:16:36;5.88;;;2.45;;
39482;SDS011;25682;48.438;1.482;2022-12-29T18:19:01;9.15;;;2.85;;
39482;SDS011;25682;48.438;1.482;2022-12-29T18:21:27;8.88;;;4.05;;
39482;SDS011;25682;48.438;1.482;2022-12-29T18:23:52;11.18;;;5.65;;
39482;SDS011;25682;48.438;1.482;2022-12-29T18:26:25;12.73;;;5.82;;
39482;SDS011;25682;48.438;1.482;2022-12-29T18:28:52;20.70;;;8.60;;
39482;SDS011;25682;48.438;1.482;2022-12-29T18:31:20;36.45;;;14.05;;
39482;SDS011;25682;48.438;1.482;2022-12-29T18:33:47;42.17;;;14.30;;
39482;SDS011;25682;48.438;1.482;2022-12-29T18:36:15;32.55;;;13.13;;
39482;SDS011;25682;48.438;1.482;2022-12-29T18:38:41;34.25;;;14.60;;
39482;SDS011;25682;48.438;1.482;2022-12-29T18:41:12;37.50;;;14.15;;
39482;SDS011;25682;48.438;1.482;2022-12-29T18:43:40;34.40;;;13.77;;
39482;SDS011;25682;48.438;1.482;2022-12-29T18:46:06;26.33;;;12.43;;
39482;SDS011;25682;48.438;1.482;2022-12-29T18:48:32;27.10;;;11.65;;
39482;SDS011;25682;48.438;1.482;2022-12-29T18:50:58;28.73;;;13.25;;
39482;SDS011;25682;48.438;1.482;2022-12-29T18:53:24;31.17;;;12.45;;
39482;SDS011;25682;48.438;1.482;2022-12-29T18:55:50;22.70;;;12.05;;
39482;SDS011;25682;48.438;1.482;2022-12-29T18:58:16;27.73;;;10.82;;
39482;SDS011;25682;48.438;1.482;2022-12-29T19:00:42;27.88;;;11.77;;
39482;SDS011;25682;48.438;1.482;2022-12-29T19:03:11;20.80;;;9.85;;
39482;SDS011;25682;48.438;1.482;2022-12-29T19:05:39;29.23;;;11.48;;
39482;SDS011;25682;48.438;1.482;2022-12-29T19:08:06;19.83;;;9.63;;
39482;SDS011;25682;48.438;1.482;2022-12-29T19:10:32;27.63;;;11.05;;
39482;SDS011;25682;48.438;1.482;2022-12-29T19:12:58;23.42;;;10.50;;
39482;SDS011;25682;48.438;1.482;2022-12-29T19:15:25;23.90;;;9.65;;
39482;SDS011;25682;48.438;1.482;2022-12-29T19:17:53;22.27;;;10.55;;
39482;SDS011;25682;48.438;1.482;2022-12-29T19:20:27;22.90;;;8.30;;
39482;SDS011;25682;48.438;1.482;2022-12-29T19:22:55;19.25;;;8.10;;
39482;SDS011;25682;48.438;1.482;2022-12-29T19:25:22;20.05;;;8.57;;
39482;SDS011;25682;48.438;1.482;2022-12-29T19:27:49;17.23;;;8.45;;
39482;SDS011;25682;48.438;1.482;2022-12-29T19:30:15;24.15;;;9.07;;
39482;SDS011;25682;48.438;1.482;2022-12-29T19:32:40;20.63;;;9.15;;
39482;SDS011;25682;48.438;1.482;2022-12-29T19:35:09;19.80;;;8.05;;
39482;SDS011;25682;48.438;1.482;2022-12-29T19:37:35;22.10;;;7.55;;
39482;SDS011;25682;48.438;1.482;2022-12-29T19:40:04;16.63;;;7.28;;
39482;SDS011;25682;48.438;1.482;2022-12-29T19:42:34;18.92;;;7.70;;
39482;SDS011;25682;48.438;1.482;2022-12-29T19:45:01;15.25;;;6.68;;
39482;SDS011;25682;48.438;1.482;2022-12-29T19:47:31;22.40;;;7.68;;
39482;SDS011;25682;48.438;1.482;2022-12-29T19:49:58;14.05;;;6.97;;
39482;SDS011;25682;48.438;1.482;2022-12-29T19:52:24;20.27;;;6.97;;
39482;SDS011;25682;48.438;1.482;2022-12-29T19:54:51;21.42;;;7.18;;
39482;SDS011;25682;48.438;1.482;2022-12-29T19:57:17;17.20;;;6.28;;
39482;SDS011;25682;48.438;1.482;2022-12-29T19:59:43;15.20;;;6.75;;
39482;SDS011;25682;48.438;1.482;2022-12-29T20:02:18;32.03;;;7.80;;
39482;SDS011;25682;48.438;1.482;2022-12-29T20:04:46;23.38;;;6.40;;
39482;SDS011;25682;48.438;1.482;2022-12-29T20:07:12;16.73;;;7.53;;
39482;SDS011;25682;48.438;1.482;2022-12-29T20:09:38;17.73;;;7.20;;
39482;SDS011;25682;48.438;1.482;2022-12-29T20:12:04;18.83;;;6.65;;
39482;SDS011;25682;48.438;1.482;2022-12-29T20:14:30;19.58;;;6.22;;
39482;SDS011;25682;48.438;1.482;2022-12-29T20:16:56;16.30;;;5.88;;
39482;SDS011;25682;48.438;1.482;2022-12-29T20:19:22;20.63;;;5.93;;
39482;SDS011;25682;48.438;1.482;2022-12-29T20:21:47;18.90;;;5.90;;
39482;SDS011;25682;48.438;1.482;2022-12-29T20:24:13;25.58;;;6.82;;
39482;SDS011;25682;48.438;1.482;2022-12-29T20:26:39;15.77;;;6.45;;
39482;SDS011;25682;48.438;1.482;2022-12-29T20:29:05;14.80;;;5.32;;
39482;SDS011;25682;48.438;1.482;2022-12-29T20:31:33;16.85;;;5.95;;
39482;SDS011;25682;48.438;1.482;2022-12-29T20:34:02;16.17;;;5.80;;
39482;SDS011;25682;48.438;1.482;2022-12-29T20:36:30;21.92;;;6.32;;
39482;SDS011;25682;48.438;1.482;2022-12-29T20:38:57;14.32;;;5.40;;
39482;SDS011;25682;48.438;1.482;2022-12-29T20:41:28;15.75;;;5.72;;
39482;SDS011;25682;48.438;1.482;2022-12-29T20:43:55;15.63;;;5.38;;
39482;SDS011;25682;48.438;1.482;2022-12-29T20:46:21;15.60;;;5.38;;
39482;SDS011;25682;48.438;1.482;2022-12-29T20:48:48;14.65;;;5.55;;
39482;SDS011;25682;48.438;1.482;2022-12-29T20:51:14;19.80;;;5.22;;
39482;SDS011;25682;48.438;1.482;2022-12-29T20:53:41;13.65;;;5.38;;
39482;SDS011;25682;48.438;1.482;2022-12-29T20:56:08;16.02;;;5.03;;
39482;SDS011;25682;48.438;1.482;2022-12-29T20:58:38;16.42;;;5.78;;
39482;SDS011;25682;48.438;1.482;2022-12-29T21:01:04;20.17;;;5.35;;
39482;SDS011;25682;48.438;1.482;2022-12-29T21:03:31;12.02;;;5.35;;
39482;SDS011;25682;48.438;1.482;2022-12-29T21:05:58;12.55;;;4.65;;
39482;SDS011;25682;48.438;1.482;2022-12-29T21:08:30;15.05;;;4.22;;
39482;SDS011;25682;48.438;1.482;2022-12-29T21:10:56;11.55;;;4.32;;
39482;SDS011;25682;48.438;1.482;2022-12-29T21:13:22;9.98;;;4.93;;
39482;SDS011;25682;48.438;1.482;2022-12-29T21:15:53;14.02;;;5.00;;
39482;SDS011;25682;48.438;1.482;2022-12-29T21:18:30;11.13;;;4.63;;
39482;SDS011;25682;48.438;1.482;2022-12-29T21:21:06;9.98;;;3.67;;
39482;SDS011;25682;48.438;1.482;2022-12-29T21:23:48;11.40;;;3.95;;
39482;SDS011;25682;48.438;1.482;2022-12-29T21:26:16;9.70;;;4.63;;
39482;SDS011;25682;48.438;1.482;2022-12-29T21:28:43;13.70;;;4.20;;
39482;SDS011;25682;48.438;1.482;2022-12-29T21:31:11;11.65;;;4.03;;
39482;SDS011;25682;48.438;1.482;2022-12-29T21:33:47;9.20;;;3.90;;
39482;SDS011;25682;48.438;1.482;2022-12-29T21:36:13;10.15;;;3.45;;
39482;SDS011;25682;48.438;1.482;2022-12-29T21:38:40;16.40;;;4.10;;
39482;SDS011;25682;48.438;1.482;2022-12-29T21:41:09;9.52;;;4.32;;
39482;SDS011;25682;48.438;1.482;2022-12-29T21:43:36;10.20;;;3.95;;
39482;SDS011;25682;48.438;1.482;2022-12-29T21:46:03;10.20;;;3.58;;
39482;SDS011;25682;48.438;1.482;2022-12-29T21:48:30;8.57;;;3.58;;
39482;SDS011;25682;48.438;1.482;2022-12-29T21:50:57;8.52;;;3.33;;
39482;SDS011;25682;48.438;1.482;2022-12-29T21:53:53;10.50;;;4.25;;
39482;SDS011;25682;48.438;1.482;2022-12-29T21:56:44;9.68;;;3.55;;
39482;SDS011;25682;48.438;1.482;2022-12-29T21:59:11;11.60;;;3.45;;
39482;SDS011;25682;48.438;1.482;2022-12-29T22:01:57;6.30;;;3.22;;
39482;SDS011;25682;48.438;1.482;2022-12-29T22:04:41;9.77;;;3.17;;
39482;SDS011;25682;48.438;1.482;2022-12-29T22:07:25;7.80;;;3.03;;
39482;SDS011;25682;48.438;1.482;2022-12-29T22:10:10;10.23;;;3.47;;
39482;SDS011;25682;48.438;1.482;2022-12-29T22:12:55;7.47;;;2.95;;
39482;SDS011;25682;48.438;1.482;2022-12-29T22:15:30;10.20;;;3.27;;
39482;SDS011;25682;48.438;1.482;2022-12-29T22:17:57;8.32;;;3.08;;
39482;SDS011;25682;48.438;1.482;2022-12-29T22:20:25;7.15;;;2.80;;
39482;SDS011;25682;48.438;1.482;2022-12-29T22:22:53;8.20;;;3.28;;
39482;SDS011;25682;48.438;1.482;2022-12-29T22:25:19;9.80;;;3.40;;
39482;SDS011;25682;48.438;1.482;2022-12-29T22:27:45;12.93;;;3.20;;
39482;SDS011;25682;48.438;1.482;2022-12-29T22:30:12;7.45;;;3.20;;
39482;SDS011;25682;48.438;1.482;2022-12-29T22:32:38;19.10;;;3.25;;
39482;SDS011;25682;48.438;1.482;2022-12-29T22:35:04;9.43;;;3.72;;
39482;SDS011;25682;48.438;1.482;2022-12-29T22:37:32;9.85;;;2.88;;
39482;SDS011;25682;48.438;1.482;2022-12-29T22:39:58;10.13;;;3.00;;
39482;SDS011;25682;48.438;1.482;2022-12-29T22:42:24;6.20;;;2.80;;
39482;SDS011;25682;48.438;1.482;2022-12-29T22:44:49;7.28;;;2.90;;
39482;SDS011;25682;48.438;1.482;2022-12-29T22:47:15;8.13;;;3.25;;
39482;SDS011;25682;48.438;1.482;2022-12-29T22:49:40;5.63;;;2.63;;
39482;SDS011;25682;48.438;1.482;2022-12-29T22:52:06;6.88;;;2.83;;
39482;SDS011;25682;48.438;1.482;2022-12-29T22:54:32;7.15;;;2.60;;
39482;SDS011;25682;48.438;1.482;2022-12-29T22:56:57;10.65;;;2.63;;
39482;SDS011;25682;48.438;1.482;2022-12-29T22:59:23;6.82;;;2.53;;
39482;SDS011;25682;48.438;1.482;2022-12-29T23:01:48;6.28;;;2.60;;
39482;SDS011;25682;48.438;1.482;2022-12-29T23:04:14;6.07;;;2.42;;
39482;SDS011;25682;48.438;1.482;2022-12-29T23:06:40;7.95;;;3.10;;
39482;SDS011;25682;48.438;1.482;2022-12-29T23:09:06;6.47;;;2.42;;
39482;SDS011;25682;48.438;1.482;2022-12-29T23:11:32;7.97;;;2.85;;
39482;SDS011;25682;48.438;1.482;2022-12-29T23:13:58;6.25;;;2.63;;
39482;SDS011;25682;48.438;1.482;2022-12-29T23:16:24;7.88;;;2.55;;
39482;SDS011;25682;48.438;1.482;2022-12-29T23:18:51;7.60;;;2.50;;
39482;SDS011;25682;48.438;1.482;2022-12-29T23:21:17;6.18;;;2.35;;
39482;SDS011;25682;48.438;1.482;2022-12-29T23:23:44;5.57;;;2.20;;
39482;SDS011;25682;48.438;1.482;2022-12-29T23:26:53;5.05;;;2.28;;
39482;SDS011;25682;48.438;1.482;2022-12-29T23:29:13;8.57;;;2.80;;
39482;SDS011;25682;48.438;1.482;2022-12-29T23:31:40;5.63;;;2.53;;
39482;SDS011;25682;48.438;1.482;2022-12-29T23:34:06;4.85;;;1.95;;
39482;SDS011;25682;48.438;1.482;2022-12-29T23:36:33;7.32;;;2.72;;
39482;SDS011;25682;48.438;1.482;2022-12-29T23:38:59;6.05;;;2.53;;
39482;SDS011;25682;48.438;1.482;2022-12-29T23:41:25;5.30;;;2.30;;
39482;SDS011;25682;48.438;1.482;2022-12-29T23:43:51;6.47;;;2.40;;
39482;SDS011;25682;48.438;1.482;2022-12-29T23:46:18;6.13;;;2.55;;
39482;SDS011;25682;48.438;1.482;2022-12-29T23:48:46;5.00;;;2.42;;
39482;SDS011;25682;48.438;1.482;2022-12-29T23:51:12;6.38;;;2.85;;
39482;SDS011;25682;48.438;1.482;2022-12-29T23:53:38;5.93;;;2.60;;
39482;SDS011;25682;48.438;1.482;2022-12-29T23:56:06;8.27;;;2.50;;
39482;SDS011;25682;48.438;1.482;2022-12-29T23:58:33;7.10;;;2.58;;
